Morrow, Georgia
Current Conditions -  °F | °C
As of 7:52 PM on Wednesday 22 Oct 2014 (Local Time) from KATL Reporting Station
Clear Clear  
Wind Chill: 61°   Ceiling: Unl
Heat Index: 61°   Visibility: 10mi
Dew Point: 42°   Wind: 12mph
Humidity: 50%   Direction: 330°NNW
Pressure: 30.09"   Gusts: NA
Location:  33.58°N, 84.34°W
Report Text: KATL 222352Z 33010KT 10SM CLR 16/06 A3009 RMK AO2 SLP189 T01610056 10211 20156 53012
Loading
Personal Weather Stations






























Interactive Weather Map
Tropical Storm Tracking
New forecast layout! Learn more

10-Day Weather Forecast

Advertisements
Track Severe Weather on mobile